Temp: 17.0°C   Baro: 1010.5mb
  Wind: 11.0mph   Dir: WNW (301°)
  Rain: 0.8mm (0.0mm/hr)
  Solar: 134W/m2  Hum: 91%
 
Bath Spa Weather Station Historical Data
Daily Summary for June 18, 2019 Units:  Both    English   Metric
Daily Weekly Monthly Yearly Custom
  High: Low: Average:
Temperature: 69 °F /  20.6 °C 57 °F /  13.9 °C 62.3 °F /  16.8 °C
Dew Point: 58.7 °F /  14.8 °C 50.8 °F /  10.4 °C 54.8 °F /  12.7 °C
Humidity: 94.2% 56.8% 77%
Wind Speed: 13mph /  20.9km/h - 4.6mph /  7.4km/h
Wind Gust: 21mph /  33.8km/h - -
Wind- - West
Pressure: 29.91 in /  1012.8 hPa 29.79 in /  1008.7 hPa -
Precipitation: 0.12 in /  3.05 mm    
Historical Graphs
 
 
Tabular Data for June 18, 2019
Time Temperature Dew Point Pressure Wind Wind Speed Wind Gust Humidity Rainfall Rate (Hourly) solar
00:04 60.3 °F /  15.7 °C 54.1 °F /  12.3 °C 29.85in /  1010.7hPa Calm   1mph /  1.6km/h 80% 0.00in /  0mm 0 W/m2
00:09 60.3 °F /  15.7 °C 54.1 °F /  12.3 °C 29.85in /  1010.7hPa WNW 0.1mph /  0.2km/h 1mph /  1.6km/h 79.9% 0.00in /  0mm 0 W/m2
00:14 60.3 °F /  15.7 °C 54.1 °F /  12.3 °C 29.85in /  1010.7hPa Calm   1mph /  1.6km/h 80% 0.00in /  0mm 0 W/m2
00:19 60.3 °F /  15.7 °C 54.1 °F /  12.3 °C 29.85in /  1010.7hPa Calm     80% 0.00in /  0mm 0 W/m2
00:24 60.3 °F /  15.7 °C 54.2 °F /  12.3 °C 29.85in /  1010.7hPa Calm     80% 0.00in /  0mm 0 W/m2
00:29 60.4 °F /  15.8 °C 54.2 °F /  12.3 °C 29.85in /  1010.7hPa WNW 0.1mph /  0.2km/h 1mph /  1.6km/h 80% 0.00in /  0mm 0 W/m2
00:34 60.4 °F /  15.8 °C 54.2 °F /  12.3 °C 29.85in /  1010.7hPa WNW 0.3mph /  0.5km/h 3mph /  4.8km/h 80% 0.00in /  0mm 0 W/m2
00:39 60.4 °F /  15.8 °C 54.3 °F /  12.4 °C 29.85in /  1010.7hPa WNW 0.5mph /  0.8km/h 3mph /  4.8km/h 80% 0.00in /  0mm 0 W/m2
00:44 60.4 °F /  15.8 °C 54.3 °F /  12.4 °C 29.85in /  1010.7hPa WNW 0.1mph /  0.2km/h 3mph /  4.8km/h 80% 0.00in /  0mm 0 W/m2
00:49 60.5 °F /  15.8 °C 54.4 °F /  12.4 °C 29.84in /  1010.4hPa Calm   1mph /  1.6km/h 80% 0.00in /  0mm 0 W/m2
00:54 60.6 °F /  15.9 °C 54.5 °F /  12.5 °C 29.84in /  1010.4hPa WNW 0.4mph /  0.6km/h 4mph /  6.4km/h 80% 0.00in /  0mm 0 W/m2
00:59 60.7 °F /  15.9 °C 54.6 °F /  12.6 °C 29.85in /  1010.7hPa West 0.9mph /  1.4km/h 4mph /  6.4km/h 80.1% 0.00in /  0mm 0 W/m2
01:04 60.8 °F /  16 °C 54.7 °F /  12.6 °C 29.84in /  1010.4hPa West 0.9mph /  1.4km/h 4mph /  6.4km/h 80% 0.00in /  0mm 0 W/m2
01:09 61 °F /  16.1 °C 54.7 °F /  12.6 °C 29.84in /  1010.4hPa WSW 0.7mph /  1.1km/h 4mph /  6.4km/h 80% 0.00in /  0mm 0 W/m2
01:14 61 °F /  16.1 °C 54.7 °F /  12.6 °C 29.84in /  1010.4hPa WSW 1.7mph /  2.7km/h 4mph /  6.4km/h 80% 0.00in /  0mm 0 W/m2
01:19 61.1 °F /  16.2 °C 54.8 °F /  12.7 °C 29.84in /  1010.4hPa WSW 1.6mph /  2.6km/h 5mph /  8km/h 80% 0.00in /  0mm 0 W/m2
01:24 61.2 °F /  16.2 °C 54.8 °F /  12.7 °C 29.84in /  1010.4hPa SW 1.2mph /  1.9km/h 5mph /  8km/h 79.4% 0.00in /  0mm 0 W/m2
01:29 61.2 °F /  16.2 °C 54.7 °F /  12.6 °C 29.84in /  1010.4hPa SW 1.7mph /  2.7km/h 6mph /  9.7km/h 79% 0.00in /  0mm 0 W/m2
01:34 61.2 °F /  16.2 °C 54.8 °F /  12.7 °C 29.84in /  1010.4hPa SW 1.3mph /  2.1km/h 5mph /  8km/h 79% 0.00in /  0mm 0 W/m2
01:39 61.2 °F /  16.2 °C 54.8 °F /  12.7 °C 29.84in /  1010.4hPa WSW 2.1mph /  3.4km/h 5mph /  8km/h 79% 0.01in /  0.25mm 0 W/m2
01:44 60.9 °F /  16.1 °C 54.8 °F /  12.7 °C 29.84in /  1010.4hPa West 3mph /  4.8km/h 7mph /  11.3km/h 80.2% 0.01in /  0.25mm 0 W/m2
01:49 60.5 °F /  15.8 °C 54.8 °F /  12.7 °C 29.84in /  1010.4hPa West 0.9mph /  1.4km/h 3mph /  4.8km/h 81.6% 0.01in /  0.25mm 0 W/m2
01:54 60.2 °F /  15.7 °C 54.9 °F /  12.7 °C 29.83in /  1010hPa WSW 1.6mph /  2.6km/h 5mph /  8km/h 82.9% 0.02in /  0.51mm 0 W/m2
01:59 59.8 °F /  15.4 °C 55 °F /  12.8 °C 29.83in /  1010hPa SW 1.4mph /  2.3km/h 5mph /  8km/h 84.2% 0.02in /  0.51mm 0 W/m2
02:04 59.6 °F /  15.3 °C 55.3 °F /  12.9 °C 29.83in /  1010hPa SW 0.1mph /  0.2km/h 4mph /  6.4km/h 85.4% 0.03in /  0.76mm 0 W/m2
02:09 59.5 °F /  15.3 °C 55.4 °F /  13 °C 29.83in /  1010hPa SW 1.2mph /  1.9km/h 5mph /  8km/h 86% 0.03in /  0.76mm 0 W/m2
02:14 59.5 °F /  15.3 °C 55.5 °F /  13.1 °C 29.83in /  1010hPa SW 1.3mph /  2.1km/h 5mph /  8km/h 86.9% 0.03in /  0.76mm 0 W/m2
02:19 59.3 °F /  15.2 °C 55.4 °F /  13 °C 29.83in /  1010hPa SW 2.1mph /  3.4km/h 5mph /  8km/h 87.1% 0.03in /  0.76mm 0 W/m2
02:24 59.2 °F /  15.1 °C 55.6 °F /  13.1 °C 29.83in /  1010hPa SSW 2.3mph /  3.7km/h 5mph /  8km/h 88% 0.04in /  1.02mm 0 W/m2
02:29 59.1 °F /  15.1 °C 55.6 °F /  13.1 °C 29.82in /  1009.7hPa SW 2.8mph /  4.5km/h 7mph /  11.3km/h 88.1% 0.04in /  1.02mm 0 W/m2
02:34 58.9 °F /  14.9 °C 55.7 °F /  13.2 °C 29.82in /  1009.7hPa SSW 2.1mph /  3.4km/h 7mph /  11.3km/h 89% 0.05in /  1.27mm 0 W/m2
02:39 58.8 °F /  14.9 °C 55.6 °F /  13.1 °C 29.82in /  1009.7hPa SW 2.3mph /  3.7km/h 7mph /  11.3km/h 89% 0.05in /  1.27mm 0 W/m2
02:44 58.8 °F /  14.9 °C 55.8 °F /  13.2 °C 29.82in /  1009.7hPa SW 1.4mph /  2.3km/h 6mph /  9.7km/h 89.7% 0.04in /  1.02mm 0 W/m2
02:49 58.8 °F /  14.9 °C 55.9 °F /  13.3 °C 29.82in /  1009.7hPa SW 0.4mph /  0.6km/h 4mph /  6.4km/h 90% 0.05in /  1.27mm 0 W/m2
02:54 58.8 °F /  14.9 °C 55.9 °F /  13.3 °C 29.82in /  1009.7hPa SW 0.3mph /  0.5km/h 3mph /  4.8km/h 90% 0.04in /  1.02mm 0 W/m2
02:59 58.8 °F /  14.9 °C 55.9 °F /  13.3 °C 29.82in /  1009.7hPa SW 0.4mph /  0.6km/h 2mph /  3.2km/h 90% 0.04in /  1.02mm 0 W/m2
03:04 58.8 °F /  14.9 °C 56 °F /  13.3 °C 29.81in /  1009.4hPa SW 0.6mph /  1km/h 3mph /  4.8km/h 90.3% 0.04in /  1.02mm 0 W/m2
03:09 58.8 °F /  14.9 °C 56.1 °F /  13.4 °C 29.81in /  1009.4hPa WSW 0.5mph /  0.8km/h 3mph /  4.8km/h 91% 0.03in /  0.76mm 0 W/m2
03:14 58.8 °F /  14.9 °C 56.1 °F /  13.4 °C 29.81in /  1009.4hPa WSW 0.2mph /  0.3km/h 2mph /  3.2km/h 91% 0.03in /  0.76mm 0 W/m2
03:19 58.8 °F /  14.9 °C 56.1 °F /  13.4 °C 29.81in /  1009.4hPa Calm   1mph /  1.6km/h 91% 0.04in /  1.02mm 0 W/m2
03:24 58.8 °F /  14.9 °C 56.1 °F /  13.4 °C 29.81in /  1009.4hPa WSW 0.4mph /  0.6km/h 2mph /  3.2km/h 91% 0.04in /  1.02mm 0 W/m2
03:29 58.8 °F /  14.9 °C 56.1 °F /  13.4 °C 29.80in /  1009hPa Calm   2mph /  3.2km/h 91% 0.03in /  0.76mm 0 W/m2
03:34 58.8 °F /  14.9 °C 56.1 °F /  13.4 °C 29.80in /  1009hPa WSW 0.2mph /  0.3km/h 2mph /  3.2km/h 91% 0.02in /  0.51mm 0 W/m2
03:39 58.8 °F /  14.9 °C 56.4 °F /  13.6 °C 29.80in /  1009hPa Calm   2mph /  3.2km/h 91.8% 0.02in /  0.51mm 0 W/m2
03:44 58.8 °F /  14.9 °C 56.5 °F /  13.6 °C 29.80in /  1009hPa WSW 0.4mph /  0.6km/h 3mph /  4.8km/h 92% 0.04in /  1.02mm 0 W/m2
03:49 59 °F /  15 °C 56.7 °F /  13.7 °C 29.80in /  1009hPa WSW 1.4mph /  2.3km/h 3mph /  4.8km/h 92% 0.04in /  1.02mm 0 W/m2
03:54 58.9 °F /  14.9 °C 56.6 °F /  13.7 °C 29.80in /  1009hPa WSW 0.9mph /  1.4km/h 3mph /  4.8km/h 92% 0.04in /  1.02mm 0 W/m2
03:59 58.9 °F /  14.9 °C 56.6 °F /  13.7 °C 29.80in /  1009hPa WSW 1mph /  1.6km/h 3mph /  4.8km/h 92% 0.04in /  1.02mm 0 W/m2
04:04 58.9 °F /  14.9 °C 56.6 °F /  13.7 °C 29.80in /  1009hPa WSW 0.3mph /  0.5km/h 2mph /  3.2km/h 92% 0.04in /  1.02mm 0 W/m2
04:09 59 °F /  15 °C 56.7 °F /  13.7 °C 29.80in /  1009hPa WSW 0.8mph /  1.3km/h 3mph /  4.8km/h 92% 0.04in /  1.02mm 0 W/m2
04:14 58.8 °F /  14.9 °C 56.7 °F /  13.7 °C 29.80in /  1009hPa WSW 0.3mph /  0.5km/h 2mph /  3.2km/h 92.6% 0.04in /  1.02mm 0 W/m2
04:19 58.9 °F /  14.9 °C 56.9 °F /  13.8 °C 29.80in /  1009hPa WSW 0.7mph /  1.1km/h 3mph /  4.8km/h 93% 0.04in /  1.02mm 0 W/m2
04:24 59 °F /  15 °C 57 °F /  13.9 °C 29.80in /  1009hPa WSW 0.3mph /  0.5km/h 2mph /  3.2km/h 93% 0.04in /  1.02mm 0 W/m2
04:29 59 °F /  15 °C 57 °F /  13.9 °C 29.80in /  1009hPa WSW 0.5mph /  0.8km/h 3mph /  4.8km/h 93% 0.04in /  1.02mm 0 W/m2
04:34 59 °F /  15 °C 57 °F /  13.9 °C 29.80in /  1009hPa WSW 0.8mph /  1.3km/h 3mph /  4.8km/h 93% 0.04in /  1.02mm 0 W/m2
04:39 59 °F /  15 °C 57 °F /  13.9 °C 29.80in /  1009hPa WSW 0.3mph /  0.5km/h 3mph /  4.8km/h 93% 0.04in /  1.02mm 0 W/m2
04:44 59 °F /  15 °C 57 °F /  13.9 °C 29.79in /  1008.7hPa Calm   1mph /  1.6km/h 93% 0.02in /  0.51mm 0 W/m2
04:49 59 °F /  15 °C 57 °F /  13.9 °C 29.79in /  1008.7hPa Calm     93% 0.02in /  0.51mm 0 W/m2
04:54 59.2 °F /  15.1 °C 57.2 °F /  14 °C 29.79in /  1008.7hPa WSW 0.1mph /  0.2km/h 1mph /  1.6km/h 93% 0.02in /  0.51mm 0 W/m2
04:59 59.2 °F /  15.1 °C 57.2 °F /  14 °C 29.79in /  1008.7hPa Calm   1mph /  1.6km/h 93% 0.02in /  0.51mm 0 W/m2
05:04 59.4 °F /  15.2 °C 57.4 °F /  14.1 °C 29.79in /  1008.7hPa WSW 0.1mph /  0.2km/h 1mph /  1.6km/h 93% 0.02in /  0.51mm 0 W/m2
05:09 59.3 °F /  15.2 °C 57.4 °F /  14.1 °C 29.79in /  1008.7hPa WSW 0.1mph /  0.2km/h 1mph /  1.6km/h 93.3% 0.02in /  0.51mm 0 W/m2
05:14 59.2 °F /  15.1 °C 57.4 °F /  14.1 °C 29.79in /  1008.7hPa Calm   1mph /  1.6km/h 94% 0.02in /  0.51mm 0 W/m2
05:19 59.2 °F /  15.1 °C 57.4 °F /  14.1 °C 29.79in /  1008.7hPa WSW 0.1mph /  0.2km/h 1mph /  1.6km/h 94% 0.02in /  0.51mm 0 W/m2
05:24 59.2 °F /  15.1 °C 57.4 °F /  14.1 °C 29.79in /  1008.7hPa WSW 0.8mph /  1.3km/h 2mph /  3.2km/h 94% 0.01in /  0.25mm 0 W/m2
05:29 59.3 °F /  15.2 °C 57.5 °F /  14.2 °C 29.79in /  1008.7hPa WSW 1.9mph /  3.1km/h 5mph /  8km/h 94% 0.01in /  0.25mm 0 W/m2
05:34 59.2 °F /  15.1 °C 57.4 °F /  14.1 °C 29.79in /  1008.7hPa WSW 0.9mph /  1.4km/h 2mph /  3.2km/h 94% 0.01in /  0.25mm 5 W/m2
05:39 59 °F /  15 °C 57.2 °F /  14 °C 29.79in /  1008.7hPa WSW 2mph /  3.2km/h 4mph /  6.4km/h 94% 0.01in /  0.25mm 7 W/m2
05:44 59 °F /  15 °C 57.2 °F /  14 °C 29.79in /  1008.7hPa WSW 1.1mph /  1.8km/h 4mph /  6.4km/h 94% 0.01in /  0.25mm 11 W/m2
05:49 59 °F /  15 °C 57.2 °F /  14 °C 29.79in /  1008.7hPa WSW 0.7mph /  1.1km/h 4mph /  6.4km/h 94% 0.01in /  0.25mm 14 W/m2
05:54 59 °F /  15 °C 57.2 °F /  14 °C 29.79in /  1008.7hPa WSW 1mph /  1.6km/h 3mph /  4.8km/h 94% 0.00in /  0mm 16 W/m2
05:59 59.1 °F /  15.1 °C 57.3 °F /  14.1 °C 29.79in /  1008.7hPa Calm   3mph /  4.8km/h 94% 0.00in /  0mm 16 W/m2
06:04 59 °F /  15 °C 57.2 °F /  14 °C 29.79in /  1008.7hPa WSW 0.3mph /  0.5km/h 2mph /  3.2km/h 94% 0.00in /  0mm 18 W/m2
06:09 59 °F /  15 °C 57.2 °F /  14 °C 29.79in /  1008.7hPa WSW 1.3mph /  2.1km/h 3mph /  4.8km/h 94% 0.00in /  0mm 21 W/m2
06:14 59 °F /  15 °C 57.2 °F /  14 °C 29.79in /  1008.7hPa WSW 0.6mph /  1km/h 2mph /  3.2km/h 94% 0.00in /  0mm 23 W/m2
06:19 59.2 °F /  15.1 °C 57.4 °F /  14.1 °C 29.79in /  1008.7hPa WSW 0.3mph /  0.5km/h 2mph /  3.2km/h 94% 0.00in /  0mm 23 W/m2
06:24 59.3 °F /  15.2 °C 57.5 °F /  14.2 °C 29.79in /  1008.7hPa WSW 1.2mph /  1.9km/h 3mph /  4.8km/h 94% 0.00in /  0mm 23 W/m2
06:29 59.4 °F /  15.2 °C 57.6 °F /  14.2 °C 29.79in /  1008.7hPa WSW 1mph /  1.6km/h 3mph /  4.8km/h 94% 0.00in /  0mm 32 W/m2
06:34 59.4 °F /  15.2 °C 57.6 °F /  14.2 °C 29.79in /  1008.7hPa WSW 1.3mph /  2.1km/h 3mph /  4.8km/h 94% 0.00in /  0mm 33 W/m2
06:39 59.4 °F /  15.2 °C 57.6 °F /  14.2 °C 29.79in /  1008.7hPa WSW 1.2mph /  1.9km/h 3mph /  4.8km/h 94% 0.00in /  0mm 37 W/m2
06:44 59.5 °F /  15.3 °C 57.7 °F /  14.3 °C 29.79in /  1008.7hPa WSW 0.9mph /  1.4km/h 3mph /  4.8km/h 94% 0.00in /  0mm 49 W/m2
06:49 59.5 °F /  15.3 °C 57.7 °F /  14.3 °C 29.79in /  1008.7hPa Calm   2mph /  3.2km/h 94% 0.00in /  0mm 58 W/m2
06:54 59.7 °F /  15.4 °C 57.9 °F /  14.4 °C 29.79in /  1008.7hPa Calm   1mph /  1.6km/h 94% 0.00in /  0mm 72 W/m2
06:59 59.8 °F /  15.4 °C 58 °F /  14.4 °C 29.79in /  1008.7hPa Calm   1mph /  1.6km/h 94% 0.00in /  0mm 72 W/m2
07:04 59.8 °F /  15.4 °C 58 °F /  14.4 °C 29.79in /  1008.7hPa West 0.7mph /  1.1km/h 3mph /  4.8km/h 94.1% 0.00in /  0mm 56 W/m2
07:09 60 °F /  15.6 °C 58.3 °F /  14.6 °C 29.79in /  1008.7hPa West 2.3mph /  3.7km/h 6mph /  9.7km/h 94.2% 0.00in /  0mm 54 W/m2
07:14 60 °F /  15.6 °C 58.3 °F /  14.6 °C 29.79in /  1008.7hPa West 3mph /  4.8km/h 6mph /  9.7km/h 94.2% 0.00in /  0mm 51 W/m2
07:19 60.1 °F /  15.6 °C 58.3 °F /  14.6 °C 29.79in /  1008.7hPa West 2.6mph /  4.2km/h 6mph /  9.7km/h 94% 0.00in /  0mm 53 W/m2
07:24 60.3 °F /  15.7 °C 58.5 °F /  14.7 °C 29.80in /  1009hPa West 3.5mph /  5.6km/h 7mph /  11.3km/h 94% 0.00in /  0mm 53 W/m2
07:29 60.3 °F /  15.7 °C 58.5 °F /  14.7 °C 29.80in /  1009hPa West 3.5mph /  5.6km/h 7mph /  11.3km/h 94% 0.00in /  0mm 56 W/m2
07:34 60.4 °F /  15.8 °C 58.6 °F /  14.8 °C 29.80in /  1009hPa West 2.2mph /  3.5km/h 7mph /  11.3km/h 94% 0.00in /  0mm 56 W/m2
07:39 60.4 °F /  15.8 °C 58.6 °F /  14.8 °C 29.80in /  1009hPa WNW 3.1mph /  5km/h 8mph /  12.9km/h 94% 0.00in /  0mm 65 W/m2
07:44 60.4 °F /  15.8 °C 58.6 °F /  14.8 °C 29.80in /  1009hPa West 4mph /  6.4km/h 7mph /  11.3km/h 94% 0.00in /  0mm 77 W/m2
07:49 60.4 °F /  15.8 °C 58.6 °F /  14.8 °C 29.80in /  1009hPa West 2.5mph /  4km/h 6mph /  9.7km/h 94% 0.00in /  0mm 97 W/m2
07:54 60.4 °F /  15.8 °C 58.6 °F /  14.8 °C 29.80in /  1009hPa West 3.1mph /  5km/h 6mph /  9.7km/h 94% 0.00in /  0mm 105 W/m2
07:59 60.5 °F /  15.8 °C 58.7 °F /  14.8 °C 29.80in /  1009hPa West 2.5mph /  4km/h 6mph /  9.7km/h 94% 0.00in /  0mm 107 W/m2
08:04 60.5 °F /  15.8 °C 58.7 °F /  14.8 °C 29.80in /  1009hPa West 2.3mph /  3.7km/h 6mph /  9.7km/h 94% 0.00in /  0mm 120 W/m2
08:09 60.5 °F /  15.8 °C 58.7 °F /  14.8 °C 29.80in /  1009hPa West 3.7mph /  6km/h 7mph /  11.3km/h 94% 0.00in /  0mm 121 W/m2
08:14 60.4 °F /  15.8 °C 58.6 °F /  14.8 °C 29.80in /  1009hPa WNW 3.2mph /  5.1km/h 7mph /  11.3km/h 94% 0.00in /  0mm 127 W/m2
08:19 60.4 °F /  15.8 °C 58.6 °F /  14.8 °C 29.80in /  1009hPa WNW 3.8mph /  6.1km/h 8mph /  12.9km/h 94% 0.00in /  0mm 134 W/m2
08:24 60.4 °F /  15.8 °C 58.6 °F /  14.8 °C 29.81in /  1009.4hPa West 4.5mph /  7.2km/h 8mph /  12.9km/h 94% 0.00in /  0mm 130 W/m2
08:29 60.5 °F /  15.8 °C 58.7 °F /  14.8 °C 29.81in /  1009.4hPa West 4.1mph /  6.6km/h 8mph /  12.9km/h 94% 0.00in /  0mm 125 W/m2
08:34 60.5 °F /  15.8 °C 58.7 °F /  14.8 °C 29.81in /  1009.4hPa West 5.6mph /  9km/h 11mph /  17.7km/h 94% 0.00in /  0mm 141 W/m2
08:39 60.2 °F /  15.7 °C 58.2 °F /  14.6 °C 29.82in /  1009.7hPa West 6.3mph /  10.1km/h 11mph /  17.7km/h 93% 0.00in /  0mm 156 W/m2
08:44 60.1 °F /  15.6 °C 58 °F /  14.4 °C 29.82in /  1009.7hPa West 4.5mph /  7.2km/h 9mph /  14.5km/h 92.9% 0.00in /  0mm 183 W/m2
08:49 60 °F /  15.6 °C 57.6 °F /  14.2 °C 29.82in /  1009.7hPa West 5.3mph /  8.5km/h 10mph /  16.1km/h 92% 0.00in /  0mm 190 W/m2
08:54 60 °F /  15.6 °C 57.6 °F /  14.2 °C 29.82in /  1009.7hPa West 5.6mph /  9km/h 11mph /  17.7km/h 92% 0.00in /  0mm 185 W/m2
08:59 60 °F /  15.6 °C 57.2 °F /  14 °C 29.82in /  1009.7hPa West 7.8mph /  12.6km/h 13mph /  20.9km/h 90.8% 0.00in /  0mm 216 W/m2
09:04 60.1 °F /  15.6 °C 57.1 °F /  13.9 °C 29.82in /  1009.7hPa WNW 7.2mph /  11.6km/h 13mph /  20.9km/h 89.7% 0.00in /  0mm 243 W/m2
09:09 60.1 °F /  15.6 °C 56.7 °F /  13.7 °C 29.83in /  1010hPa WNW 8.3mph /  13.4km/h 14mph /  22.5km/h 88.5% 0.00in /  0mm 236 W/m2
09:14 60.3 °F /  15.7 °C 56.7 °F /  13.7 °C 29.82in /  1009.7hPa West 6.4mph /  10.3km/h 12mph /  19.3km/h 88% 0.00in /  0mm 279 W/m2
09:19 60.3 °F /  15.7 °C 56.3 °F /  13.5 °C 29.82in /  1009.7hPa West 6.3mph /  10.1km/h 13mph /  20.9km/h 87.1% 0.00in /  0mm 230 W/m2
09:24 60.2 °F /  15.7 °C 56 °F /  13.3 °C 29.83in /  1010hPa WNW 7.4mph /  11.9km/h 13mph /  20.9km/h 86% 0.00in /  0mm 225 W/m2
09:29 59.9 °F /  15.5 °C 55.3 °F /  12.9 °C 29.83in /  1010hPa West 8mph /  12.9km/h 17mph /  27.4km/h 84.6% 0.00in /  0mm 246 W/m2
09:34 59.9 °F /  15.5 °C 55 °F /  12.8 °C 29.83in /  1010hPa West 6.2mph /  10km/h 11mph /  17.7km/h 84% 0.00in /  0mm 290 W/m2
09:39 60.3 °F /  15.7 °C 55.4 °F /  13 °C 29.83in /  1010hPa West 5.8mph /  9.3km/h 13mph /  20.9km/h 84% 0.00in /  0mm 329 W/m2
09:44 60.3 °F /  15.7 °C 55 °F /  12.8 °C 29.83in /  1010hPa West 8.1mph /  13km/h 15mph /  24.1km/h 83% 0.00in /  0mm 369 W/m2
09:49 60.6 °F /  15.9 °C 55.2 °F /  12.9 °C 29.83in /  1010hPa West 4.1mph /  6.6km/h 14mph /  22.5km/h 82.7% 0.00in /  0mm 364 W/m2
09:54 60.8 °F /  16 °C 55.2 °F /  12.9 °C 29.83in /  1010hPa West 6.9mph /  11.1km/h 12mph /  19.3km/h 82.1% 0.00in /  0mm 385 W/m2
09:59 60.7 °F /  15.9 °C 54.6 °F /  12.6 °C 29.83in /  1010hPa West 7.9mph /  12.7km/h 14mph /  22.5km/h 80.3% 0.00in /  0mm 357 W/m2
10:04 60.6 °F /  15.9 °C 54.1 °F /  12.3 °C 29.83in /  1010hPa West 8.1mph /  13km/h 15mph /  24.1km/h 79% 0.00in /  0mm 378 W/m2
10:09 60.6 °F /  15.9 °C 54.1 °F /  12.3 °C 29.83in /  1010hPa WNW 8.5mph /  13.7km/h 16mph /  25.7km/h 78.8% 0.00in /  0mm 346 W/m2
10:14 60.6 °F /  15.9 °C 54 °F /  12.2 °C 29.84in /  1010.4hPa West 7.1mph /  11.4km/h 14mph /  22.5km/h 78.8% 0.00in /  0mm 281 W/m2
10:19 60.7 °F /  15.9 °C 54.2 °F /  12.3 °C 29.83in /  1010hPa West 6.9mph /  11.1km/h 11mph /  17.7km/h 79% 0.00in /  0mm 288 W/m2
10:24 60.7 °F /  15.9 °C 54.2 °F /  12.3 °C 29.84in /  1010.4hPa West 8.4mph /  13.5km/h 14mph /  22.5km/h 79% 0.00in /  0mm 323 W/m2
10:29 60.6 °F /  15.9 °C 54.1 °F /  12.3 °C 29.84in /  1010.4hPa WNW 8.4mph /  13.5km/h 15mph /  24.1km/h 79% 0.00in /  0mm 339 W/m2
10:34 60.6 °F /  15.9 °C 54.1 °F /  12.3 °C 29.84in /  1010.4hPa West 7.7mph /  12.4km/h 13mph /  20.9km/h 79% 0.00in /  0mm 320 W/m2
10:39 60.6 °F /  15.9 °C 54.1 °F /  12.3 °C 29.84in /  1010.4hPa West 7.8mph /  12.6km/h 14mph /  22.5km/h 79% 0.00in /  0mm 323 W/m2
10:44 60.8 °F /  16 °C 54.3 °F /  12.4 °C 29.84in /  1010.4hPa WNW 5.1mph /  8.2km/h 11mph /  17.7km/h 79% 0.00in /  0mm 306 W/m2
10:49 61 °F /  16.1 °C 54.5 °F /  12.5 °C 29.84in /  1010.4hPa WNW 8.9mph /  14.3km/h 14mph /  22.5km/h 79% 0.00in /  0mm 301 W/m2
10:54 60.9 °F /  16.1 °C 54.4 °F /  12.4 °C 29.84in /  1010.4hPa WNW 6.4mph /  10.3km/h 12mph /  19.3km/h 79% 0.00in /  0mm 381 W/m2
10:59 61.3 °F /  16.3 °C 54.8 °F /  12.7 °C 29.84in /  1010.4hPa West 4.2mph /  6.8km/h 10mph /  16.1km/h 79% 0.00in /  0mm 381 W/m2
11:04 61.6 °F /  16.4 °C 54.8 °F /  12.7 °C 29.84in /  1010.4hPa West 6.3mph /  10.1km/h 12mph /  19.3km/h 78.3% 0.00in /  0mm 396 W/m2
11:09 61.5 °F /  16.4 °C 54.5 °F /  12.5 °C 29.84in /  1010.4hPa WNW 6mph /  9.7km/h 12mph /  19.3km/h 77.3% 0.00in /  0mm 294 W/m2
11:14 61.5 °F /  16.4 °C 54.3 °F /  12.4 °C 29.85in /  1010.7hPa WNW 6.3mph /  10.1km/h 12mph /  19.3km/h 77% 0.00in /  0mm 258 W/m2
11:19 61.5 °F /  16.4 °C 54.3 °F /  12.4 °C 29.85in /  1010.7hPa WNW 6mph /  9.7km/h 11mph /  17.7km/h 77% 0.00in /  0mm 341 W/m2
11:24 61.6 °F /  16.4 °C 54.4 °F /  12.4 °C 29.85in /  1010.7hPa WNW 6.2mph /  10km/h 12mph /  19.3km/h 76.8% 0.00in /  0mm 390 W/m2
11:29 62.2 °F /  16.8 °C 54.6 °F /  12.6 °C 29.85in /  1010.7hPa WNW 5mph /  8km/h 10mph /  16.1km/h 76.5% 0.00in /  0mm 371 W/m2
11:34 62.5 °F /  16.9 °C 54.7 °F /  12.6 °C 29.85in /  1010.7hPa West 5.5mph /  8.9km/h 11mph /  17.7km/h 75.6% 0.00in /  0mm 548 W/m2
11:39 62.7 °F /  17.1 °C 54.5 °F /  12.5 °C 29.85in /  1010.7hPa WNW 8mph /  12.9km/h 14mph /  22.5km/h 74.9% 0.00in /  0mm 515 W/m2
11:44 62.7 °F /  17.1 °C 53.9 °F /  12.2 °C 29.85in /  1010.7hPa WNW 6.9mph /  11.1km/h 14mph /  22.5km/h 73.1% 0.00in /  0mm 464 W/m2
11:49 62.9 °F /  17.2 °C 53.9 °F /  12.2 °C 29.85in /  1010.7hPa WNW 5.9mph /  9.5km/h 12mph /  19.3km/h 72.4% 0.00in /  0mm 410 W/m2
11:54 63.1 °F /  17.3 °C 53.6 °F /  12 °C 29.85in /  1010.7hPa WNW 5.4mph /  8.7km/h 12mph /  19.3km/h 71.3% 0.00in /  0mm 410 W/m2
11:59 63.3 °F /  17.4 °C 54.1 °F /  12.3 °C 29.85in /  1010.7hPa WNW 6mph /  9.7km/h 12mph /  19.3km/h 72% 0.00in /  0mm 376 W/m2
12:04 63.3 °F /  17.4 °C 53.7 °F /  12.1 °C 29.85in /  1010.7hPa West 7.9mph /  12.7km/h 14mph /  22.5km/h 70.8% 0.00in /  0mm 387 W/m2
12:09 63.5 °F /  17.5 °C 53.1 °F /  11.7 °C 29.85in /  1010.7hPa WNW 7.6mph /  12.2km/h 15mph /  24.1km/h 68.8% 0.00in /  0mm 490 W/m2
12:14 63.5 °F /  17.5 °C 52.3 °F /  11.3 °C 29.85in /  1010.7hPa WNW 7.8mph /  12.6km/h 15mph /  24.1km/h 67% 0.00in /  0mm 499 W/m2
12:19 64.1 °F /  17.8 °C 53 °F /  11.7 °C 29.85in /  1010.7hPa WNW 6.2mph /  10km/h 14mph /  22.5km/h 67.2% 0.00in /  0mm 508 W/m2
12:24 64 °F /  17.8 °C 52.3 °F /  11.3 °C 29.85in /  1010.7hPa West 9.6mph /  15.4km/h 18mph /  29km/h 65.5% 0.00in /  0mm 461 W/m2
12:29 64.2 °F /  17.9 °C 52.2 °F /  11.2 °C 29.85in /  1010.7hPa WNW 6.7mph /  10.8km/h 18mph /  29km/h 65% 0.00in /  0mm 603 W/m2
12:34 64.8 °F /  18.2 °C 52.6 °F /  11.4 °C 29.85in /  1010.7hPa WNW 8.4mph /  13.5km/h 16mph /  25.7km/h 64.8% 0.00in /  0mm 603 W/m2
12:39 64.8 °F /  18.2 °C 53.4 °F /  11.9 °C 29.85in /  1010.7hPa WNW 6.5mph /  10.5km/h 12mph /  19.3km/h 66.4% 0.00in /  0mm 603 W/m2
12:44 65.2 °F /  18.4 °C 53.8 °F /  12.1 °C 29.85in /  1010.7hPa West 8.3mph /  13.4km/h 15mph /  24.1km/h 66.7% 0.00in /  0mm 1188 W/m2
12:49 65 °F /  18.3 °C 52.7 °F /  11.5 °C 29.85in /  1010.7hPa WNW 7.7mph /  12.4km/h 14mph /  22.5km/h 64.3% 0.00in /  0mm 1188 W/m2
12:54 65.1 °F /  18.4 °C 52.9 °F /  11.6 °C 29.85in /  1010.7hPa WNW 7.8mph /  12.6km/h 15mph /  24.1km/h 64.7% 0.00in /  0mm 452 W/m2
12:59 65.2 °F /  18.4 °C 53.9 °F /  12.2 °C 29.85in /  1010.7hPa West 7.1mph /  11.4km/h 14mph /  22.5km/h 66.7% 0.00in /  0mm 473 W/m2
13:04 65.2 °F /  18.4 °C 54.4 °F /  12.4 °C 29.85in /  1010.7hPa West 7.2mph /  11.6km/h 14mph /  22.5km/h 68.1% 0.00in /  0mm 411 W/m2
13:09 65.1 °F /  18.4 °C 54.3 °F /  12.4 °C 29.85in /  1010.7hPa West 8.4mph /  13.5km/h 13mph /  20.9km/h 68.2% 0.00in /  0mm 411 W/m2
13:14 64.9 °F /  18.3 °C 54.6 °F /  12.6 °C 29.85in /  1010.7hPa West 6.8mph /  10.9km/h 13mph /  20.9km/h 69.4% 0.00in /  0mm 454 W/m2
13:19 65.5 °F /  18.6 °C 55.1 °F /  12.8 °C 29.85in /  1010.7hPa West 5.7mph /  9.2km/h 13mph /  20.9km/h 69.2% 0.00in /  0mm 501 W/m2
13:24 66 °F /  18.9 °C 55.5 °F /  13.1 °C 29.85in /  1010.7hPa West 7mph /  11.3km/h 14mph /  22.5km/h 68.6% 0.00in /  0mm 921 W/m2
13:29 66 °F /  18.9 °C 55.2 °F /  12.9 °C 29.85in /  1010.7hPa West 8.4mph /  13.5km/h 14mph /  22.5km/h 68% 0.00in /  0mm 933 W/m2
13:34 66.2 °F /  19 °C 54.8 °F /  12.7 °C 29.85in /  1010.7hPa WNW 10mph /  16.1km/h 16mph /  25.7km/h 66.7% 0.00in /  0mm 898 W/m2
13:39 66.1 °F /  18.9 °C 55.3 °F /  12.9 °C 29.85in /  1010.7hPa West 8.2mph /  13.2km/h 16mph /  25.7km/h 68% 0.00in /  0mm 983 W/m2
13:44 66.5 °F /  19.2 °C 55.1 °F /  12.8 °C 29.85in /  1010.7hPa WNW 7.5mph /  12.1km/h 16mph /  25.7km/h 67% 0.00in /  0mm 935 W/m2
13:49 66.9 °F /  19.4 °C 55.6 °F /  13.1 °C 29.85in /  1010.7hPa WNW 7.2mph /  11.6km/h 15mph /  24.1km/h 67.1% 0.00in /  0mm 939 W/m2
13:54 67.2 °F /  19.6 °C 55.8 °F /  13.2 °C 29.85in /  1010.7hPa WSW 7.8mph /  12.6km/h 15mph /  24.1km/h 67% 0.00in /  0mm 947 W/m2
13:59 67.6 °F /  19.8 °C 56 °F /  13.3 °C 29.85in /  1010.7hPa WSW 8mph /  12.9km/h 18mph /  29km/h 66.5% 0.00in /  0mm 944 W/m2
14:04 66.8 °F /  19.3 °C 55.7 °F /  13.2 °C 29.86in /  1011.1hPa West 7.5mph /  12.1km/h 18mph /  29km/h 67.6% 0.00in /  0mm 904 W/m2
14:09 66.9 °F /  19.4 °C 55.7 °F /  13.2 °C 29.85in /  1010.7hPa West 9.3mph /  15km/h 15mph /  24.1km/h 67.3% 0.00in /  0mm 904 W/m2
14:14 66.9 °F /  19.4 °C 55.5 °F /  13.1 °C 29.85in /  1010.7hPa WSW 10.2mph /  16.4km/h 18mph /  29km/h 66.7% 0.00in /  0mm 410 W/m2
14:19 67.1 °F /  19.5 °C 55.5 °F /  13.1 °C 29.86in /  1011.1hPa WNW 10.2mph /  16.4km/h 18mph /  29km/h 66.3% 0.00in /  0mm 923 W/m2
14:24 67.8 °F /  19.9 °C 55.7 °F /  13.2 °C 29.86in /  1011.1hPa West 6.8mph /  10.9km/h 15mph /  24.1km/h 65.3% 0.00in /  0mm 933 W/m2
14:29 68.6 °F /  20.3 °C 55.6 °F /  13.1 °C 29.86in /  1011.1hPa West 7.8mph /  12.6km/h 14mph /  22.5km/h 63.3% 0.00in /  0mm 937 W/m2
14:34 68.1 °F /  20.1 °C 54.6 °F /  12.6 °C 29.86in /  1011.1hPa West 9mph /  14.5km/h 16mph /  25.7km/h 62.1% 0.00in /  0mm 940 W/m2
14:39 68 °F /  20 °C 54.9 °F /  12.7 °C 29.86in /  1011.1hPa West 7.5mph /  12.1km/h 14mph /  22.5km/h 63.1% 0.00in /  0mm 940 W/m2
14:44 67.8 °F /  19.9 °C 54.8 °F /  12.7 °C 29.86in /  1011.1hPa West 8.7mph /  14km/h 16mph /  25.7km/h 63% 0.00in /  0mm 944 W/m2
14:49 68.2 °F /  20.1 °C 55.2 °F /  12.9 °C 29.86in /  1011.1hPa West 8.9mph /  14.3km/h 17mph /  27.4km/h 63.2% 0.00in /  0mm 951 W/m2
14:54 68.8 °F /  20.4 °C 55.7 °F /  13.2 °C 29.86in /  1011.1hPa West 7mph /  11.3km/h 13mph /  20.9km/h 63% 0.00in /  0mm 951 W/m2
14:59 68.7 °F /  20.4 °C 55.7 °F /  13.2 °C 29.86in /  1011.1hPa West 8.6mph /  13.8km/h 17mph /  27.4km/h 63.2% 0.00in /  0mm 979 W/m2
15:04 68.4 °F /  20.2 °C 55.3 °F /  12.9 °C 29.86in /  1011.1hPa West 11.1mph /  17.9km/h 17mph /  27.4km/h 63.1% 0.00in /  0mm 979 W/m2
15:09 67.9 °F /  19.9 °C 55.3 °F /  12.9 °C 29.86in /  1011.1hPa West 10.2mph /  16.4km/h 20mph /  32.2km/h 64.2% 0.00in /  0mm 889 W/m2
15:14 67.9 °F /  19.9 °C 55.5 °F /  13.1 °C 29.85in /  1010.7hPa West 11.1mph /  17.9km/h 20mph /  32.2km/h 64.3% 0.00in /  0mm 886 W/m2
15:19 68.1 °F /  20.1 °C 55.7 °F /  13.2 °C 29.86in /  1011.1hPa WNW 8mph /  12.9km/h 19mph /  30.6km/h 64.5% 0.00in /  0mm 907 W/m2
15:24 68.8 °F /  20.4 °C 56.2 °F /  13.4 °C 29.86in /  1011.1hPa West 7.6mph /  12.2km/h 15mph /  24.1km/h 64.2% 0.00in /  0mm 907 W/m2
15:29 68.6 °F /  20.3 °C 55.6 °F /  13.1 °C 29.86in /  1011.1hPa WNW 11.7mph /  18.8km/h 17mph /  27.4km/h 63.1% 0.00in /  0mm 860 W/m2
15:34 67.9 °F /  19.9 °C 55.7 °F /  13.2 °C 29.86in /  1011.1hPa WNW 7.4mph /  11.9km/h 17mph /  27.4km/h 64.9% 0.00in /  0mm 860 W/m2
15:39 68.3 °F /  20.2 °C 55.7 °F /  13.2 °C 29.86in /  1011.1hPa WNW 7.3mph /  11.7km/h 16mph /  25.7km/h 64.1% 0.00in /  0mm 824 W/m2
15:44 68.5 °F /  20.3 °C 55.9 °F /  13.3 °C 29.86in /  1011.1hPa West 7.6mph /  12.2km/h 14mph /  22.5km/h 64% 0.00in /  0mm 812 W/m2
15:49 68.6 °F /  20.3 °C 55.6 °F /  13.1 °C 29.86in /  1011.1hPa West 10.1mph /  16.3km/h 16mph /  25.7km/h 63.1% 0.00in /  0mm 798 W/m2
15:54 68.2 °F /  20.1 °C 55 °F /  12.8 °C 29.85in /  1010.7hPa WSW 8.6mph /  13.8km/h 13mph /  20.9km/h 62.9% 0.00in /  0mm 759 W/m2
15:59 68.5 °F /  20.3 °C 55.2 °F /  12.9 °C 29.86in /  1011.1hPa WSW 9.8mph /  15.8km/h 17mph /  27.4km/h 62.5% 0.00in /  0mm 733 W/m2
16:04 68.5 °F /  20.3 °C 55.4 °F /  13 °C 29.86in /  1011.1hPa WNW 6.4mph /  10.3km/h 13mph /  20.9km/h 62.9% 0.00in /  0mm 735 W/m2
16:09 69 °F /  20.6 °C 55.8 °F /  13.2 °C 29.86in /  1011.1hPa West 9.5mph /  15.3km/h 18mph /  29km/h 62.7% 0.00in /  0mm 733 W/m2
16:14 68.8 °F /  20.4 °C 55.4 °F /  13 °C 29.86in /  1011.1hPa West 10.7mph /  17.2km/h 20mph /  32.2km/h 62.3% 0.00in /  0mm 744 W/m2
16:19 68.7 °F /  20.4 °C 55.5 °F /  13.1 °C 29.86in /  1011.1hPa West 12.9mph /  20.8km/h 21mph /  33.8km/h 62.8% 0.00in /  0mm 738 W/m2
16:24 68.4 °F /  20.2 °C 55.2 °F /  12.9 °C 29.86in /  1011.1hPa West 12.5mph /  20.1km/h 19mph /  30.6km/h 62.7% 0.00in /  0mm 714 W/m2
16:29 68 °F /  20 °C 55.4 °F /  13 °C 29.86in /  1011.1hPa West 8.7mph /  14km/h 19mph /  30.6km/h 64% 0.00in /  0mm 714 W/m2
16:34 68 °F /  20 °C 55.2 °F /  12.9 °C 29.86in /  1011.1hPa WNW 9.8mph /  15.8km/h 18mph /  29km/h 63.7% 0.00in /  0mm 670 W/m2
16:39 68 °F /  20 °C 54.5 °F /  12.5 °C 29.86in /  1011.1hPa West 10.4mph /  16.7km/h 17mph /  27.4km/h 62.1% 0.00in /  0mm 670 W/m2
16:44 68.2 °F /  20.1 °C 54.2 °F /  12.3 °C 29.86in /  1011.1hPa West 10.2mph /  16.4km/h 18mph /  29km/h 61.1% 0.00in /  0mm 596 W/m2
16:49 67.9 °F /  19.9 °C 53.9 °F /  12.2 °C 29.86in /  1011.1hPa West 10.2mph /  16.4km/h 19mph /  30.6km/h 60.8% 0.00in /  0mm 587 W/m2
16:54 67.7 °F /  19.8 °C 54.3 °F /  12.4 °C 29.86in /  1011.1hPa West 9.1mph /  14.6km/h 19mph /  30.6km/h 62.2% 0.00in /  0mm 601 W/m2
16:59 67.5 °F /  19.7 °C 53.9 °F /  12.2 °C 29.86in /  1011.1hPa West 9.5mph /  15.3km/h 20mph /  32.2km/h 61.7% 0.00in /  0mm 613 W/m2
17:04 67.6 °F /  19.8 °C 53.9 °F /  12.2 °C 29.87in /  1011.4hPa West 11.2mph /  18km/h 18mph /  29km/h 61.3% 0.00in /  0mm 547 W/m2
17:09 67.2 °F /  19.6 °C 53.7 °F /  12.1 °C 29.87in /  1011.4hPa West 13mph /  20.9km/h 20mph /  32.2km/h 62% 0.00in /  0mm 503 W/m2
17:14 67.1 °F /  19.5 °C 53.2 °F /  11.8 °C 29.87in /  1011.4hPa WNW 9.3mph /  15km/h 20mph /  32.2km/h 61.2% 0.00in /  0mm 612 W/m2
17:19 67.5 °F /  19.7 °C 53.5 °F /  11.9 °C 29.87in /  1011.4hPa WNW 9.5mph /  15.3km/h 17mph /  27.4km/h 60.8% 0.00in /  0mm 561 W/m2
17:24 67.5 °F /  19.7 °C 53.6 °F /  12 °C 29.87in /  1011.4hPa WNW 10mph /  16.1km/h 17mph /  27.4km/h 60.9% 0.00in /  0mm 554 W/m2
17:29 67.6 °F /  19.8 °C 53.5 °F /  11.9 °C 29.87in /  1011.4hPa West 9mph /  14.5km/h 16mph /  25.7km/h 60.4% 0.00in /  0mm 547 W/m2
17:34 67.7 °F /  19.8 °C 53.1 °F /  11.7 °C 29.87in /  1011.4hPa West 8.8mph /  14.2km/h 17mph /  27.4km/h 59.5% 0.00in /  0mm 526 W/m2
17:39 67.7 °F /  19.8 °C 53 °F /  11.7 °C 29.87in /  1011.4hPa WNW 9.2mph /  14.8km/h 15mph /  24.1km/h 59.3% 0.00in /  0mm 469 W/m2
17:44 67.7 °F /  19.8 °C 53.3 °F /  11.8 °C 29.87in /  1011.4hPa WNW 8.4mph /  13.5km/h 16mph /  25.7km/h 60% 0.00in /  0mm 485 W/m2
17:49 67.9 °F /  19.9 °C 53.8 °F /  12.1 °C 29.87in /  1011.4hPa WNW 6.6mph /  10.6km/h 14mph /  22.5km/h 60.6% 0.00in /  0mm 494 W/m2
17:54 68.1 °F /  20.1 °C 53.9 °F /  12.2 °C 29.87in /  1011.4hPa West 8mph /  12.9km/h 14mph /  22.5km/h 60.5% 0.00in /  0mm 476 W/m2
17:59 67.7 °F /  19.8 °C 53.3 °F /  11.8 °C 29.87in /  1011.4hPa West 8.9mph /  14.3km/h 15mph /  24.1km/h 60% 0.00in /  0mm 466 W/m2
18:04 67.5 °F /  19.7 °C 53.2 °F /  11.8 °C 29.87in /  1011.4hPa West 7.6mph /  12.2km/h 13mph /  20.9km/h 60.1% 0.00in /  0mm 353 W/m2
18:09 67.2 °F /  19.6 °C 53.2 °F /  11.8 °C 29.87in /  1011.4hPa West 8.2mph /  13.2km/h 14mph /  22.5km/h 60.7% 0.00in /  0mm 454 W/m2
18:14 67.6 °F /  19.8 °C 53.4 °F /  11.9 °C 29.87in /  1011.4hPa West 7.3mph /  11.7km/h 13mph /  20.9km/h 60.3% 0.00in /  0mm 457 W/m2
18:19 67.5 °F /  19.7 °C 52.4 °F /  11.3 °C 29.87in /  1011.4hPa West 8mph /  12.9km/h 15mph /  24.1km/h 58.3% 0.00in /  0mm 367 W/m2
18:24 67.5 °F /  19.7 °C 52.6 °F /  11.4 °C 29.87in /  1011.4hPa WNW 6.9mph /  11.1km/h 15mph /  24.1km/h 58.7% 0.00in /  0mm 339 W/m2
18:29 67.1 °F /  19.5 °C 52.1 °F /  11.2 °C 29.87in /  1011.4hPa West 9mph /  14.5km/h 16mph /  25.7km/h 58.7% 0.00in /  0mm 309 W/m2
18:34 66.9 °F /  19.4 °C 51.8 °F /  11 °C 29.87in /  1011.4hPa West 9.2mph /  14.8km/h 17mph /  27.4km/h 58.3% 0.00in /  0mm 292 W/m2
18:39 66.7 °F /  19.3 °C 51.2 °F /  10.7 °C 29.88in /  1011.7hPa West 8.4mph /  13.5km/h 17mph /  27.4km/h 57.5% 0.00in /  0mm 323 W/m2
18:44 66.6 °F /  19.2 °C 50.9 °F /  10.5 °C 29.88in /  1011.7hPa WNW 8.9mph /  14.3km/h 17mph /  27.4km/h 56.8% 0.00in /  0mm 323 W/m2
18:49 66.5 °F /  19.2 °C 50.8 °F /  10.4 °C 29.88in /  1011.7hPa WNW 7.6mph /  12.2km/h 16mph /  25.7km/h 57.2% 0.00in /  0mm 346 W/m2
18:54 66.7 °F /  19.3 °C 51.3 °F /  10.7 °C 29.88in /  1011.7hPa WNW 7.4mph /  11.9km/h 14mph /  22.5km/h 57.6% 0.00in /  0mm 336 W/m2
18:59 66.8 °F /  19.3 °C 51.4 °F /  10.8 °C 29.88in /  1011.7hPa WSW 8.8mph /  14.2km/h 16mph /  25.7km/h 57.5% 0.00in /  0mm 320 W/m2
19:04 67 °F /  19.4 °C 51.7 °F /  10.9 °C 29.88in /  1011.7hPa WNW 6.9mph /  11.1km/h 16mph /  25.7km/h 58% 0.00in /  0mm 288 W/m2
19:09 66.7 °F /  19.3 °C 52 °F /  11.1 °C 29.88in /  1011.7hPa WNW 6.4mph /  10.3km/h 16mph /  25.7km/h 59.1% 0.00in /  0mm 292 W/m2
19:14 66.5 °F /  19.2 °C 52.3 °F /  11.3 °C 29.88in /  1011.7hPa West 6.1mph /  9.8km/h 13mph /  20.9km/h 60.3% 0.00in /  0mm 183 W/m2
19:19 66.2 °F /  19 °C 52.8 °F /  11.6 °C 29.88in /  1011.7hPa West 7.1mph /  11.4km/h 12mph /  19.3km/h 62% 0.00in /  0mm 227 W/m2
19:24 65.9 °F /  18.8 °C 53 °F /  11.7 °C 29.88in /  1011.7hPa WNW 8.1mph /  13km/h 13mph /  20.9km/h 62.9% 0.00in /  0mm 174 W/m2
19:29 65.4 °F /  18.6 °C 53.2 °F /  11.8 °C 29.88in /  1011.7hPa West 6.1mph /  9.8km/h 15mph /  24.1km/h 64.6% 0.00in /  0mm 95 W/m2
19:34 64.9 °F /  18.3 °C 53.2 °F /  11.8 °C 29.88in /  1011.7hPa West 4.3mph /  6.9km/h 15mph /  24.1km/h 66% 0.00in /  0mm 84 W/m2
19:39 64.8 °F /  18.2 °C 53.6 °F /  12 °C 29.88in /  1011.7hPa WNW 7mph /  11.3km/h 13mph /  20.9km/h 66.9% 0.00in /  0mm 97 W/m2
19:44 64.6 °F /  18.1 °C 53.6 °F /  12 °C 29.88in /  1011.7hPa WNW 5.5mph /  8.9km/h 13mph /  20.9km/h 67.5% 0.00in /  0mm 121 W/m2
19:49 64.4 °F /  18 °C 53.6 °F /  12 °C 29.88in /  1011.7hPa WNW 4.9mph /  7.9km/h 12mph /  19.3km/h 67.9% 0.00in /  0mm 111 W/m2
19:54 64.4 °F /  18 °C 53.5 °F /  11.9 °C 29.88in /  1011.7hPa West 5.3mph /  8.5km/h 10mph /  16.1km/h 67.9% 0.00in /  0mm 118 W/m2
19:59 64.3 °F /  17.9 °C 53.4 °F /  11.9 °C 29.88in /  1011.7hPa WNW 6.4mph /  10.3km/h 13mph /  20.9km/h 67.8% 0.00in /  0mm 105 W/m2
20:04 64.2 °F /  17.9 °C 53.4 °F /  11.9 °C 29.88in /  1011.7hPa West 4.8mph /  7.7km/h 10mph /  16.1km/h 68% 0.00in /  0mm 104 W/m2
20:09 64.1 °F /  17.8 °C 53.3 °F /  11.8 °C 29.88in /  1011.7hPa West 6.1mph /  9.8km/h 12mph /  19.3km/h 68% 0.00in /  0mm 118 W/m2
20:14 64.2 °F /  17.9 °C 53.2 °F /  11.8 °C 29.88in /  1011.7hPa WNW 5.8mph /  9.3km/h 11mph /  17.7km/h 67.3% 0.00in /  0mm 109 W/m2
20:19 64 °F /  17.8 °C 52.9 °F /  11.6 °C 29.89in /  1012.1hPa West 5.1mph /  8.2km/h 13mph /  20.9km/h 67% 0.00in /  0mm 90 W/m2
20:24 63.8 °F /  17.7 °C 52.7 °F /  11.5 °C 29.89in /  1012.1hPa West 5.9mph /  9.5km/h 13mph /  20.9km/h 67.2% 0.00in /  0mm 62 W/m2
20:29 63.5 °F /  17.5 °C 52.3 °F /  11.3 °C 29.88in /  1011.7hPa West 7.3mph /  11.7km/h 12mph /  19.3km/h 67% 0.00in /  0mm 60 W/m2
20:34 63.2 °F /  17.3 °C 52.1 °F /  11.2 °C 29.89in /  1012.1hPa West 5.5mph /  8.9km/h 12mph /  19.3km/h 67% 0.00in /  0mm 44 W/m2
20:39 63.1 °F /  17.3 °C 52.2 °F /  11.2 °C 29.89in /  1012.1hPa West 5.6mph /  9km/h 10mph /  16.1km/h 67.8% 0.00in /  0mm 32 W/m2
20:44 62.9 °F /  17.2 °C 52.4 °F /  11.3 °C 29.89in /  1012.1hPa WNW 6.7mph /  10.8km/h 11mph /  17.7km/h 68.6% 0.00in /  0mm 25 W/m2
20:49 62.5 °F /  16.9 °C 52.3 °F /  11.3 °C 29.89in /  1012.1hPa West 4.3mph /  6.9km/h 11mph /  17.7km/h 69% 0.00in /  0mm 19 W/m2
20:54 62.2 °F /  16.8 °C 52.3 °F /  11.3 °C 29.89in /  1012.1hPa WNW 6mph /  9.7km/h 10mph /  16.1km/h 69.7% 0.00in /  0mm 18 W/m2
20:59 62 °F /  16.7 °C 52.3 °F /  11.3 °C 29.89in /  1012.1hPa West 4.6mph /  7.4km/h 10mph /  16.1km/h 70.7% 0.00in /  0mm 16 W/m2
21:04 61.6 °F /  16.4 °C 52.1 °F /  11.2 °C 29.89in /  1012.1hPa West 3.6mph /  5.8km/h 7mph /  11.3km/h 71% 0.00in /  0mm 12 W/m2
21:09 61.4 °F /  16.3 °C 52.2 °F /  11.2 °C 29.89in /  1012.1hPa West 3.6mph /  5.8km/h 7mph /  11.3km/h 71.8% 0.00in /  0mm 9 W/m2
21:14 61.3 °F /  16.3 °C 52.4 °F /  11.3 °C 29.89in /  1012.1hPa West 4.2mph /  6.8km/h 7mph /  11.3km/h 72.5% 0.00in /  0mm 5 W/m2
21:19 61.2 °F /  16.2 °C 52.5 °F /  11.4 °C 29.89in /  1012.1hPa West 3.7mph /  6km/h 8mph /  12.9km/h 73% 0.00in /  0mm 0 W/m2
21:24 61.1 °F /  16.2 °C 52.4 °F /  11.3 °C 29.89in /  1012.1hPa West 3.6mph /  5.8km/h 6mph /  9.7km/h 73% 0.00in /  0mm 0 W/m2
21:29 60.8 °F /  16 °C 52.4 °F /  11.3 °C 29.90in /  1012.4hPa West 3.5mph /  5.6km/h 6mph /  9.7km/h 73.8% 0.00in /  0mm 0 W/m2
21:34 60.6 °F /  15.9 °C 52.3 °F /  11.3 °C 29.90in /  1012.4hPa West 3.1mph /  5km/h 6mph /  9.7km/h 74% 0.00in /  0mm 0 W/m2
21:39 60.4 °F /  15.8 °C 52.2 °F /  11.2 °C 29.90in /  1012.4hPa West 1.3mph /  2.1km/h 5mph /  8km/h 74% 0.00in /  0mm 0 W/m2
21:44 60.3 °F /  15.7 °C 52.1 °F /  11.2 °C 29.90in /  1012.4hPa West 2.4mph /  3.9km/h 5mph /  8km/h 74% 0.00in /  0mm 0 W/m2
21:49 60.2 °F /  15.7 °C 52 °F /  11.1 °C 29.90in /  1012.4hPa West 2mph /  3.2km/h 6mph /  9.7km/h 74.1% 0.00in /  0mm 0 W/m2
21:54 59.9 °F /  15.5 °C 52 °F /  11.1 °C 29.90in /  1012.4hPa WSW 0.9mph /  1.4km/h 5mph /  8km/h 75% 0.00in /  0mm 0 W/m2
21:59 59.8 °F /  15.4 °C 51.9 °F /  11.1 °C 29.91in /  1012.8hPa WSW 1.5mph /  2.4km/h 5mph /  8km/h 75% 0.00in /  0mm 0 W/m2
22:04 59.6 °F /  15.3 °C 51.7 °F /  10.9 °C 29.91in /  1012.8hPa WSW 1.1mph /  1.8km/h 4mph /  6.4km/h 75% 0.00in /  0mm 0 W/m2
22:09 59.4 °F /  15.2 °C 51.5 °F /  10.8 °C 29.91in /  1012.8hPa WSW 1.6mph /  2.6km/h 4mph /  6.4km/h 75.2% 0.00in /  0mm 0 W/m2
22:14 59.2 °F /  15.1 °C 51.6 °F /  10.9 °C 29.91in /  1012.8hPa WSW 1.5mph /  2.4km/h 4mph /  6.4km/h 76% 0.00in /  0mm 0 W/m2
22:19 58.9 °F /  14.9 °C 51.4 °F /  10.8 °C 29.91in /  1012.8hPa WSW 1.8mph /  2.9km/h 4mph /  6.4km/h 76.1% 0.00in /  0mm 0 W/m2
22:24 58.6 °F /  14.8 °C 51.5 °F /  10.8 °C 29.91in /  1012.8hPa WNW 3.1mph /  5km/h 6mph /  9.7km/h 77.2% 0.00in /  0mm 0 W/m2
22:29 58.5 °F /  14.7 °C 51.6 °F /  10.9 °C 29.91in /  1012.8hPa NW 3.1mph /  5km/h 5mph /  8km/h 78% 0.00in /  0mm 0 W/m2
22:34 58.5 °F /  14.7 °C 52 °F /  11.1 °C 29.91in /  1012.8hPa NW 2.6mph /  4.2km/h 6mph /  9.7km/h 79% 0.00in /  0mm 0 W/m2
22:39 58.3 °F /  14.6 °C 52 °F /  11.1 °C 29.91in /  1012.8hPa NW 2mph /  3.2km/h 5mph /  8km/h 79.6% 0.00in /  0mm 0 W/m2
22:44 58.2 °F /  14.6 °C 52.1 °F /  11.2 °C 29.91in /  1012.8hPa NW 0.9mph /  1.4km/h 4mph /  6.4km/h 80% 0.00in /  0mm 0 W/m2
22:49 58.1 °F /  14.5 °C 52 °F /  11.1 °C 29.91in /  1012.8hPa NW 1.8mph /  2.9km/h 5mph /  8km/h 80% 0.00in /  0mm 0 W/m2
22:54 58 °F /  14.4 °C 52.1 °F /  11.2 °C 29.91in /  1012.8hPa NW 1.9mph /  3.1km/h 4mph /  6.4km/h 80.6% 0.00in /  0mm 0 W/m2
22:59 57.9 °F /  14.4 °C 52.2 °F /  11.2 °C 29.91in /  1012.8hPa NW 1.6mph /  2.6km/h 4mph /  6.4km/h 81% 0.00in /  0mm 0 W/m2
23:04 57.9 °F /  14.4 °C 52.3 °F /  11.3 °C 29.91in /  1012.8hPa NW 0.2mph /  0.3km/h 4mph /  6.4km/h 81.2% 0.00in /  0mm 0 W/m2
23:09 57.9 °F /  14.4 °C 52.5 °F /  11.4 °C 29.91in /  1012.8hPa NW 0.2mph /  0.3km/h 1mph /  1.6km/h 82% 0.00in /  0mm 0 W/m2
23:14 57.8 °F /  14.3 °C 52.4 °F /  11.3 °C 29.91in /  1012.8hPa Calm   1mph /  1.6km/h 82% 0.00in /  0mm 0 W/m2
23:19 57.7 °F /  14.3 °C 52.3 °F /  11.3 °C 29.91in /  1012.8hPa NW 0.2mph /  0.3km/h 1mph /  1.6km/h 82% 0.00in /  0mm 0 W/m2
23:24 57.7 °F /  14.3 °C 52.3 °F /  11.3 °C 29.91in /  1012.8hPa NW 0.9mph /  1.4km/h 3mph /  4.8km/h 82% 0.00in /  0mm 0 W/m2
23:29 57.7 °F /  14.3 °C 52.3 °F /  11.3 °C 29.91in /  1012.8hPa NW 0.1mph /  0.2km/h 2mph /  3.2km/h 82% 0.00in /  0mm 0 W/m2
23:34 57.7 °F /  14.3 °C 52.3 °F /  11.3 °C 29.91in /  1012.8hPa Calm     82% 0.00in /  0mm 0 W/m2
23:39 57.6 °F /  14.2 °C 52.2 °F /  11.2 °C 29.91in /  1012.8hPa Calm     82% 0.00in /  0mm 0 W/m2
23:44 57.5 °F /  14.2 °C 52.1 °F /  11.2 °C 29.91in /  1012.8hPa Calm     82% 0.00in /  0mm 0 W/m2
23:49 57.3 °F /  14.1 °C 52.1 °F /  11.2 °C 29.91in /  1012.8hPa NW 0.2mph /  0.3km/h 1mph /  1.6km/h 82.5% 0.00in /  0mm 0 W/m2
23:54 57.2 °F /  14 °C 52.2 °F /  11.2 °C 29.91in /  1012.8hPa Calm   1mph /  1.6km/h 83% 0.00in /  0mm 0 W/m2
23:59 57 °F /  13.9 °C 52 °F /  11.1 °C 29.91in /  1012.8hPa Calm     83% 0.00in /  0mm 0 W/m2
Bath Spa Weather
Compliments of Weather Underground - 2 mb